createdAt,value
2019-04-07T00:01:04.638Z,98313.76
2019-04-07T00:03:33.339Z,98312.07
2019-04-07T00:06:01.756Z,98320.08
2019-04-07T00:08:31.195Z,98313.05
2019-04-07T00:11:00.214Z,98311.38
2019-04-07T00:13:29.389Z,98313.05
2019-04-07T00:15:57.955Z,98316.70
2019-04-07T00:18:27.115Z,98314.99
2019-04-07T00:20:55.583Z,98310.63
2019-04-07T00:23:24.055Z,98305.30
2019-04-07T00:25:52.507Z,98311.62
2019-04-07T00:28:21.191Z,98312.48
2019-04-07T00:30:50.019Z,98315.27
2019-04-07T00:33:18.435Z,98305.54
2019-04-07T00:35:46.903Z,98309.19
2019-04-07T00:38:15.347Z,98305.83
2019-04-07T00:40:43.813Z,98312.11
2019-04-07T00:43:12.249Z,98316.63
2019-04-07T00:45:40.658Z,98309.44
2019-04-07T00:48:09.136Z,98314.94
2019-04-07T00:50:37.508Z,98305.09
2019-04-07T00:53:06.533Z,98312.39
2019-04-07T00:55:35.016Z,98309.72
2019-04-07T00:58:03.662Z,98310.67
2019-04-07T01:00:33.761Z,98313.34
2019-04-07T01:03:02.184Z,98309.84
2019-04-07T01:05:36.737Z,98310.95
2019-04-07T01:08:00.970Z,98312.64
2019-04-07T01:10:30.469Z,98313.62
2019-04-07T01:12:59.030Z,98314.56
2019-04-07T01:15:27.894Z,98317.39
2019-04-07T01:17:56.361Z,98312.05
2019-04-07T01:20:24.773Z,98311.20
2019-04-07T01:22:53.188Z,98303.31
2019-04-07T01:25:21.582Z,98309.51
2019-04-07T01:27:51.198Z,98314.84
2019-04-07T01:30:19.942Z,98306.11
2019-04-07T01:32:48.452Z,98305.27
2019-04-07T01:35:16.894Z,98299.08
2019-04-07T01:37:45.863Z,98300.89
2019-04-07T01:40:14.539Z,98308.89
2019-04-07T01:42:44.597Z,98301.02
2019-04-07T01:45:23.807Z,98306.34
2019-04-07T01:48:06.133Z,98301.02
2019-04-07T01:50:39.275Z,98301.99
2019-04-07T01:53:25.978Z,98298.63
2019-04-07T01:56:12.025Z,98292.42
2019-04-07T01:58:58.355Z,98299.57
2019-04-07T02:01:45.068Z,98298.74
2019-04-07T02:04:24.546Z,98306.88
2019-04-07T02:07:00.811Z,98301.66
2019-04-07T02:09:47.897Z,98299.11
2019-04-07T02:12:26.867Z,98304.45
2019-04-07T02:15:12.973Z,98301.78
2019-04-07T02:17:45.720Z,98310.77
2019-04-07T02:20:38.780Z,98317.08
2019-04-07T02:23:09.555Z,98318.03
2019-04-07T02:25:52.745Z,98311.01
2019-04-07T02:28:23.041Z,98309.31
2019-04-07T02:30:59.027Z,98310.15
2019-04-07T02:33:31.519Z,98311.25
2019-04-07T02:36:15.687Z,98311.25
2019-04-07T02:38:39.041Z,98307.75
2019-04-07T02:41:20.708Z,98307.88
2019-04-07T02:43:50.747Z,98307.88
2019-04-07T02:46:21.182Z,98304.34
2019-04-07T02:48:57.746Z,98309.80
2019-04-07T02:51:28.036Z,98310.66
2019-04-07T02:54:16.262Z,98304.47
2019-04-07T02:56:46.317Z,98308.98
2019-04-07T02:59:35.323Z,98310.75
2019-04-07T03:02:11.000Z,98308.09
2019-04-07T03:04:41.601Z,98308.09
2019-04-07T03:07:17.785Z,98308.09
2019-04-07T03:09:47.863Z,98305.42
2019-04-07T03:12:21.198Z,98306.40
2019-04-07T03:15:03.850Z,98306.40
2019-04-07T03:17:39.721Z,98306.40
2019-04-07T03:20:16.747Z,98311.73
2019-04-07T03:22:47.162Z,98319.00
2019-04-07T03:25:17.351Z,98318.17
2019-04-07T03:27:57.118Z,98320.84
2019-04-07T03:30:40.960Z,98319.00
2019-04-07T03:33:22.650Z,98318.17
2019-04-07T03:35:55.356Z,98324.33
2019-04-07T03:38:27.408Z,98319.00
2019-04-07T03:40:57.545Z,98319.00
2019-04-07T03:43:30.607Z,98324.33
2019-04-07T03:46:03.687Z,98315.50
2019-04-07T03:48:33.846Z,98317.31
2019-04-07T03:51:09.590Z,98313.66
2019-04-07T03:53:52.153Z,98319.00
2019-04-07T03:56:25.398Z,98324.33
2019-04-07T03:59:01.228Z,98322.64
2019-04-07T04:01:35.248Z,98327.98
2019-04-07T04:04:22.412Z,98322.64
2019-04-07T04:06:55.413Z,98317.31
2019-04-07T04:09:37.094Z,98317.31
2019-04-07T04:12:21.321Z,98321.78
2019-04-07T04:15:07.011Z,98319.98
2019-04-07T04:17:35.430Z,98312.95
2019-04-07T04:20:08.384Z,98317.31
2019-04-07T04:22:37.735Z,98327.98
2019-04-07T04:25:06.792Z,98327.98
2019-04-07T04:27:35.469Z,98332.45
2019-04-07T04:30:10.238Z,98335.98
2019-04-07T04:32:39.535Z,98334.17
2019-04-07T04:35:08.516Z,98329.67
2019-04-07T04:37:44.200Z,98336.72
2019-04-07T04:40:07.559Z,98332.22
2019-04-07T04:42:36.004Z,98330.53
2019-04-07T04:45:06.346Z,98332.22
2019-04-07T04:47:34.794Z,98329.55
2019-04-07T04:50:04.820Z,98338.41
2019-04-07T04:52:34.052Z,98338.41
2019-04-07T04:55:02.425Z,98340.09
2019-04-07T04:57:31.889Z,98341.81
2019-04-07T05:00:00.567Z,98341.81
2019-04-07T05:02:29.914Z,98342.67
2019-04-07T05:04:58.426Z,98345.22
2019-04-07T05:07:27.078Z,98357.58
2019-04-07T05:09:56.681Z,98350.32
2019-04-07T05:12:25.880Z,98358.17
2019-04-07T05:14:54.794Z,98344.71
2019-04-07T05:17:23.404Z,98355.38
2019-04-07T05:19:52.185Z,98353.45
2019-04-07T05:22:21.194Z,98357.93
2019-04-07T05:24:50.467Z,98355.14
2019-04-07T05:27:19.002Z,98359.50
2019-04-07T05:29:47.851Z,98365.69
2019-04-07T05:32:16.869Z,98363.88
2019-04-07T05:34:45.598Z,98362.78
2019-04-07T05:37:14.132Z,98352.47
2019-04-07T05:39:42.618Z,98367.26
2019-04-07T05:42:11.034Z,98364.59
2019-04-07T05:44:39.796Z,98370.78
2019-04-07T05:47:10.904Z,98371.61
2019-04-07T05:49:38.917Z,98368.95
2019-04-07T05:52:07.578Z,98376.00
2019-04-07T05:54:36.193Z,98374.16
2019-04-07T05:57:05.362Z,98373.34
2019-04-07T05:59:34.023Z,98377.69
2019-04-07T06:02:03.069Z,98372.36
2019-04-07T06:04:32.202Z,98376.70
2019-04-07T06:07:00.724Z,98370.39
2019-04-07T06:09:29.627Z,98374.78
2019-04-07T06:11:58.712Z,98370.15
2019-04-07T06:14:27.350Z,98371.84
2019-04-07T06:16:55.995Z,98366.50
2019-04-07T06:19:24.985Z,98373.44
2019-04-07T06:21:53.462Z,98377.05
2019-04-07T06:24:22.505Z,98366.26
2019-04-07T06:26:51.063Z,98375.00
2019-04-07T06:29:20.035Z,98369.55
2019-04-07T06:31:48.536Z,98373.04
2019-04-07T06:34:18.777Z,98366.72
2019-04-07T06:36:51.517Z,98379.00
2019-04-07T06:39:19.260Z,98379.82
2019-04-07T06:41:47.662Z,98383.23
2019-04-07T06:44:19.901Z,98377.89
2019-04-07T06:46:50.954Z,98375.92
2019-04-07T06:49:27.493Z,98385.78
2019-04-07T06:52:00.654Z,98386.61
2019-04-07T06:54:35.359Z,98390.13
2019-04-07T06:57:14.838Z,98385.63
2019-04-07T06:59:51.346Z,98384.67
2019-04-07T07:02:38.001Z,98381.02
2019-04-07T07:05:24.152Z,98389.16
2019-04-07T07:08:10.010Z,98388.17
2019-04-07T07:10:56.425Z,98386.36
2019-04-07T07:13:33.473Z,98388.05
2019-04-07T07:16:01.576Z,98401.40
2019-04-07T07:18:43.882Z,98397.75
2019-04-07T07:21:16.694Z,98405.75
2019-04-07T07:23:48.931Z,98406.61
2019-04-07T07:26:16.062Z,98406.61
2019-04-07T07:28:45.642Z,98409.41
2019-04-07T07:31:14.418Z,98407.47
2019-04-07T07:33:43.910Z,98403.82
2019-04-07T07:36:13.385Z,98415.36
2019-04-07T07:38:54.516Z,98413.40
2019-04-07T07:41:12.118Z,98410.61
2019-04-07T07:43:41.466Z,98418.38
2019-04-07T07:46:10.135Z,98417.39
2019-04-07T07:48:38.930Z,98419.94
2019-04-07T07:51:10.928Z,98421.50
2019-04-07T07:53:38.320Z,98415.18
2019-04-07T07:56:11.329Z,98416.87
2019-04-07T07:58:36.985Z,98419.30
2019-04-07T08:01:05.545Z,98427.30
2019-04-07T08:03:33.957Z,98418.31
2019-04-07T08:06:06.937Z,98417.36
2019-04-07T08:08:33.128Z,98425.38
2019-04-07T08:11:02.715Z,98422.58
2019-04-07T08:13:31.363Z,98418.06
2019-04-07T08:16:00.492Z,98427.77
2019-04-07T08:18:29.616Z,98423.16
2019-04-07T08:20:58.902Z,98424.97
2019-04-07T08:23:29.750Z,98424.02
2019-04-07T08:25:59.115Z,98432.03
2019-04-07T08:28:27.592Z,98439.92
2019-04-07T08:30:56.112Z,98436.39
2019-04-07T08:33:24.831Z,98434.58
2019-04-07T08:35:55.264Z,98437.95
2019-04-07T08:38:26.728Z,98429.08
2019-04-07T08:40:55.115Z,98432.52
2019-04-07T08:43:24.679Z,98446.58
2019-04-07T08:45:53.665Z,98447.44
2019-04-07T08:48:22.191Z,98455.45
2019-04-07T08:50:50.614Z,98450.85
2019-04-07T08:53:19.208Z,98457.02
2019-04-07T08:55:49.879Z,98449.87
2019-04-07T08:58:24.939Z,98448.89
2019-04-07T09:00:52.626Z,98446.09
2019-04-07T09:03:19.906Z,98445.11
2019-04-07T09:05:48.419Z,98446.67
2019-04-07T09:08:17.808Z,98454.56
2019-04-07T09:10:49.523Z,98457.11
2019-04-07T09:13:18.590Z,98455.88
2019-04-07T09:15:49.690Z,98453.94
2019-04-07T09:18:23.296Z,98454.52
2019-04-07T09:20:53.411Z,98445.40
2019-04-07T09:23:40.472Z,98454.73
2019-04-07T09:26:13.089Z,98453.62
2019-04-07T09:28:43.332Z,98456.16
2019-04-07T09:31:20.432Z,98461.38
2019-04-07T09:33:53.986Z,98454.93
2019-04-07T09:36:32.348Z,98454.80
2019-04-07T09:39:07.862Z,98445.80
2019-04-07T09:41:55.144Z,98450.89
2019-04-07T09:44:28.963Z,98458.66
2019-04-07T09:47:17.255Z,98462.77
2019-04-07T09:50:00.507Z,98460.80
2019-04-07T09:52:49.035Z,98455.20
2019-04-07T09:55:27.899Z,98456.89
2019-04-07T09:58:14.865Z,98452.14
2019-04-07T10:00:57.712Z,98461.73
2019-04-07T10:03:38.169Z,98465.95
2019-04-07T10:06:10.620Z,98459.63
2019-04-07T10:08:56.467Z,98452.47
2019-04-07T10:11:43.927Z,98457.52
2019-04-07T10:14:16.819Z,98465.42
2019-04-07T10:16:56.333Z,98463.38
2019-04-07T10:19:26.937Z,98455.67
2019-04-07T10:21:57.063Z,98456.69
2019-04-07T10:24:43.049Z,98463.08
2019-04-07T10:27:17.627Z,98450.45
2019-04-07T10:30:03.545Z,98446.52
2019-04-07T10:32:34.009Z,98457.99
2019-04-07T10:35:13.636Z,98461.96
2019-04-07T10:37:47.449Z,98459.32
2019-04-07T10:40:33.475Z,98454.03
2019-04-07T10:43:21.744Z,98462.22
2019-04-07T10:45:51.960Z,98453.75
2019-04-07T10:48:28.653Z,98465.75
2019-04-07T10:51:14.879Z,98455.06
2019-04-07T10:53:45.168Z,98458.17
2019-04-07T10:56:17.741Z,98460.05
2019-04-07T10:59:04.755Z,98455.80
2019-04-07T11:01:36.221Z,98454.17
2019-04-07T11:04:12.691Z,98447.91
2019-04-07T11:06:43.863Z,98461.11
2019-04-07T11:09:30.507Z,98452.34
2019-04-07T11:12:09.833Z,98461.48
2019-04-07T11:14:43.062Z,98457.56
2019-04-07T11:17:13.926Z,98460.22
2019-04-07T11:19:46.825Z,98460.82
2019-04-07T11:22:36.101Z,98463.73
2019-04-07T11:25:06.420Z,98464.73
2019-04-07T11:27:39.865Z,98459.42
2019-04-07T11:30:10.029Z,98466.75
2019-04-07T11:32:40.300Z,98473.34
2019-04-07T11:35:13.722Z,98470.23
2019-04-07T11:37:49.605Z,98465.73
2019-04-07T11:40:29.276Z,98472.34
2019-04-07T11:43:07.064Z,98476.71
2019-04-07T11:45:56.126Z,98473.95
2019-04-07T11:48:27.510Z,98478.20
2019-04-07T11:50:57.688Z,98470.35
2019-04-07T11:53:30.491Z,98473.38
2019-04-07T11:56:01.467Z,98477.53
2019-04-07T11:58:38.662Z,98473.62
2019-04-07T12:01:15.695Z,98467.47
2019-04-07T12:04:02.724Z,98475.14
2019-04-07T12:06:49.589Z,98481.44
2019-04-07T12:09:19.640Z,98473.62
2019-04-07T12:11:52.617Z,98469.77
2019-04-07T12:14:25.643Z,98468.11
2019-04-07T12:17:12.569Z,98468.47
2019-04-07T12:19:59.194Z,98452.50
2019-04-07T12:22:38.092Z,98459.47
2019-04-07T12:25:25.800Z,98464.86
2019-04-07T12:28:01.509Z,98453.94
2019-04-07T12:30:37.988Z,98448.73
2019-04-07T12:33:24.238Z,98446.49
2019-04-07T12:35:55.770Z,98441.42
2019-04-07T12:38:28.879Z,98453.02
2019-04-07T12:41:12.313Z,98453.64
2019-04-07T12:43:30.705Z,98457.78
2019-04-07T12:46:01.260Z,98446.98
2019-04-07T12:48:32.020Z,98455.67
2019-04-07T12:51:08.437Z,98461.78
2019-04-07T12:53:38.985Z,98453.87
2019-04-07T12:56:32.345Z,98458.88
2019-04-07T12:59:18.065Z,98462.91
2019-04-07T13:02:07.859Z,98459.64
2019-04-07T13:04:37.086Z,98453.67
2019-04-07T13:07:25.296Z,98461.39
2019-04-07T13:09:55.340Z,98452.55
2019-04-07T13:12:31.168Z,98451.86
2019-04-07T13:15:16.638Z,98448.45
2019-04-07T13:17:56.303Z,98450.91
2019-04-07T13:20:42.670Z,98451.27
2019-04-07T13:23:13.626Z,98453.19
2019-04-07T13:25:54.320Z,98444.03
2019-04-07T13:28:40.160Z,98448.47
2019-04-07T13:31:21.987Z,98446.97
2019-04-07T13:34:02.767Z,98454.70
2019-04-07T13:36:33.343Z,98447.32
2019-04-07T13:39:09.928Z,98451.30
2019-04-07T13:41:47.599Z,98448.63
2019-04-07T13:44:29.510Z,98447.40
2019-04-07T13:47:09.471Z,98452.16
2019-04-07T13:49:58.986Z,98455.41
2019-04-07T13:52:28.030Z,98462.45
2019-04-07T13:55:04.637Z,98456.74
2019-04-07T13:57:36.024Z,98454.16
2019-04-07T14:00:15.027Z,98457.72
2019-04-07T14:03:01.384Z,98456.16
2019-04-07T14:05:32.100Z,98451.89
2019-04-07T14:08:17.224Z,98451.69
2019-04-07T14:10:50.415Z,98457.56
2019-04-07T14:13:21.018Z,98446.77
2019-04-07T14:15:52.001Z,98450.72
2019-04-07T14:18:22.391Z,98448.28
2019-04-07T14:21:09.422Z,98445.28
2019-04-07T14:23:42.364Z,98445.09
2019-04-07T14:26:15.740Z,98437.33
2019-04-07T14:28:48.328Z,98443.53
2019-04-07T14:31:18.373Z,98446.23
2019-04-07T14:33:55.605Z,98441.56
2019-04-07T14:36:38.166Z,98438.05
2019-04-07T14:39:09.643Z,98439.51
2019-04-07T14:41:43.214Z,98434.58
2019-04-07T14:44:30.421Z,98434.81
2019-04-07T14:47:09.678Z,98434.45
2019-04-07T14:49:56.192Z,98430.59
2019-04-07T14:52:42.655Z,98435.62
2019-04-07T14:55:21.451Z,98432.92
2019-04-07T14:58:13.080Z,98432.03
2019-04-07T15:00:43.914Z,98423.25
2019-04-07T15:03:12.449Z,98421.50
2019-04-07T15:05:42.527Z,98425.65
2019-04-07T15:08:12.571Z,98427.77
2019-04-07T15:10:52.774Z,98419.14
2019-04-07T15:13:25.799Z,98424.80
2019-04-07T15:15:53.146Z,98423.35
2019-04-07T15:18:21.641Z,98423.61
2019-04-07T15:20:50.541Z,98421.88
2019-04-07T15:23:19.843Z,98420.30
2019-04-07T15:25:48.385Z,98429.16
2019-04-07T15:28:17.487Z,98417.64
2019-04-07T15:30:48.827Z,98421.08
2019-04-07T15:33:16.283Z,98419.16
2019-04-07T15:35:48.682Z,98415.72
2019-04-07T15:38:15.403Z,98417.33
2019-04-07T15:40:44.880Z,98418.25
2019-04-07T15:43:13.370Z,98419.86
2019-04-07T15:45:44.388Z,98417.09
2019-04-07T15:48:12.491Z,98415.17
2019-04-07T15:50:41.727Z,98422.93
2019-04-07T15:53:13.452Z,98428.92
2019-04-07T15:55:47.598Z,98422.45
2019-04-07T15:58:10.792Z,98421.20
2019-04-07T16:00:39.222Z,98427.05
2019-04-07T16:03:08.571Z,98429.63
2019-04-07T16:05:42.212Z,98430.21
2019-04-07T16:08:07.181Z,98434.19
2019-04-07T16:10:36.004Z,98436.48
2019-04-07T16:13:04.764Z,98435.22
2019-04-07T16:15:33.234Z,98436.66
2019-04-07T16:18:05.460Z,98437.08
2019-04-07T16:20:37.176Z,98433.14
2019-04-07T16:23:02.033Z,98433.57
2019-04-07T16:25:30.497Z,98439.36
2019-04-07T16:27:59.064Z,98436.13
2019-04-07T16:30:27.504Z,98434.88
2019-04-07T16:32:59.698Z,98444.20
2019-04-07T16:35:26.353Z,98447.30
2019-04-07T16:37:55.398Z,98446.04
2019-04-07T16:40:23.935Z,98449.03
2019-04-07T16:43:04.785Z,98444.94
2019-04-07T16:45:23.285Z,98456.23
2019-04-07T16:47:51.715Z,98459.18
2019-04-07T16:50:20.679Z,98453.41
2019-04-07T16:52:49.825Z,98452.14
2019-04-07T16:55:37.222Z,98453.55
2019-04-07T16:58:06.319Z,98456.50
2019-04-07T17:00:35.583Z,98449.02
2019-04-07T17:03:04.444Z,98451.96
2019-04-07T17:05:33.374Z,98458.59
2019-04-07T17:08:01.814Z,98458.03
2019-04-07T17:10:33.872Z,98456.76
2019-04-07T17:13:01.737Z,98458.88
2019-04-07T17:15:31.641Z,98456.61
2019-04-07T17:18:00.299Z,98455.19
2019-04-07T17:20:33.328Z,98456.45
2019-04-07T17:22:58.889Z,98463.07
2019-04-07T17:25:27.286Z,98456.16
2019-04-07T17:27:58.726Z,98461.92
2019-04-07T17:30:28.098Z,98468.41
2019-04-07T17:32:56.648Z,98458.95
2019-04-07T17:35:25.017Z,98462.89
2019-04-07T17:37:56.574Z,98459.65
2019-04-07T17:40:28.867Z,98466.12
2019-04-07T17:42:59.690Z,98469.90
2019-04-07T17:45:38.820Z,98467.48
2019-04-07T17:48:14.538Z,98462.39
2019-04-07T17:50:44.584Z,98468.87
2019-04-07T17:53:32.870Z,98466.45
2019-04-07T17:56:05.601Z,98473.79
2019-04-07T17:58:47.934Z,98465.16
2019-04-07T18:01:23.528Z,98467.14
2019-04-07T18:04:09.325Z,98477.25
2019-04-07T18:06:43.966Z,98483.72
2019-04-07T18:09:18.025Z,98485.70
2019-04-07T18:12:03.054Z,98484.97
2019-04-07T18:14:36.324Z,98486.09
2019-04-07T18:17:06.614Z,98487.08
2019-04-07T18:19:37.542Z,98492.56
2019-04-07T18:22:18.236Z,98488.33
2019-04-07T18:24:48.724Z,98492.81
2019-04-07T18:27:25.337Z,98492.95
2019-04-07T18:29:59.623Z,98491.27
2019-04-07T18:32:30.717Z,98492.12
2019-04-07T18:35:16.871Z,98491.39
2019-04-07T18:38:08.834Z,98497.59
2019-04-07T18:40:43.997Z,98494.92
2019-04-07T18:43:19.025Z,98494.92
2019-04-07T18:45:57.828Z,98499.41
2019-04-07T18:48:43.892Z,98494.06
2019-04-07T18:51:17.769Z,98501.10
2019-04-07T18:53:50.675Z,98501.10
2019-04-07T18:56:23.837Z,98501.97
2019-04-07T18:59:00.185Z,98497.47
2019-04-07T19:01:38.897Z,98498.30
2019-04-07T19:04:16.956Z,98504.51
2019-04-07T19:06:48.416Z,98508.17
2019-04-07T19:09:35.964Z,98509.86
2019-04-07T19:12:23.488Z,98500.02
2019-04-07T19:15:12.049Z,98500.84
2019-04-07T19:17:59.578Z,98502.83
2019-04-07T19:20:38.384Z,98508.17
2019-04-07T19:23:11.115Z,98501.10
2019-04-07T19:25:47.795Z,98507.44
2019-04-07T19:28:18.860Z,98504.06
2019-04-07T19:30:55.080Z,98505.88
2019-04-07T19:33:31.084Z,98501.39
2019-04-07T19:36:04.811Z,98498.84
2019-04-07T19:38:37.546Z,98498.84
2019-04-07T19:41:06.897Z,98497.16
2019-04-07T19:43:44.672Z,98497.16
2019-04-07T19:46:31.558Z,98497.98
2019-04-07T19:49:02.317Z,98500.78
2019-04-07T19:51:33.948Z,98496.42
2019-04-07T19:54:20.394Z,98503.59
2019-04-07T19:56:51.087Z,98502.03
2019-04-07T19:59:30.184Z,98503.88
2019-04-07T20:02:01.027Z,98507.52
2019-04-07T20:04:44.244Z,98502.45
2019-04-07T20:07:15.976Z,98503.41
2019-04-07T20:09:52.544Z,98508.05
2019-04-07T20:12:36.305Z,98508.05
2019-04-07T20:15:10.946Z,98508.30
2019-04-07T20:17:38.840Z,98504.93
2019-04-07T20:20:10.997Z,98504.93
2019-04-07T20:22:41.496Z,98506.87
2019-04-07T20:25:28.019Z,98514.20
2019-04-07T20:27:59.359Z,98504.45
2019-04-07T20:30:35.636Z,98498.40
2019-04-07T20:33:14.830Z,98507.37
2019-04-07T20:35:44.951Z,98485.31
2019-04-07T20:38:17.979Z,98507.63
2019-04-07T20:40:50.798Z,98510.30
2019-04-07T20:43:35.909Z,98513.23
2019-04-07T20:46:24.061Z,98512.53
2019-04-07T20:49:05.623Z,98517.14
2019-04-07T20:51:37.873Z,98510.97
2019-04-07T20:54:14.055Z,98508.42
2019-04-07T20:56:45.886Z,98509.38
2019-04-07T20:59:31.440Z,98515.70
2019-04-07T21:02:17.110Z,98513.16
2019-04-07T21:04:50.085Z,98500.90
2019-04-07T21:07:23.352Z,98507.23
2019-04-07T21:09:59.958Z,98506.50
2019-04-07T21:12:33.562Z,98496.79
2019-04-07T21:15:27.464Z,98466.28
2019-04-07T21:17:54.415Z,98497.77
2019-04-07T21:20:27.770Z,98497.04
2019-04-07T21:22:57.896Z,98506.04
2019-04-07T21:25:28.068Z,98506.04
2019-04-07T21:28:06.071Z,98510.53
2019-04-07T21:30:44.661Z,98502.66
2019-04-07T21:33:17.483Z,98508.02
2019-04-07T21:36:00.025Z,98508.96
2019-04-07T21:38:45.414Z,98512.62
2019-04-07T21:41:22.150Z,98509.95
2019-04-07T21:43:58.257Z,98512.74
2019-04-07T21:46:44.788Z,98506.57
2019-04-07T21:49:14.872Z,98505.84
2019-04-07T21:51:55.333Z,98508.51
2019-04-07T21:54:34.739Z,98511.30
2019-04-07T21:57:05.903Z,98512.16
2019-04-07T21:59:39.626Z,98504.27
2019-04-07T22:02:13.579Z,98495.39
2019-04-07T22:04:53.044Z,98509.74
2019-04-07T22:07:25.047Z,98505.38
2019-04-07T22:09:55.211Z,98505.38
2019-04-07T22:12:29.524Z,98501.02
2019-04-07T22:14:54.817Z,98507.31
2019-04-07T22:17:23.466Z,98511.83
2019-04-07T22:19:51.910Z,98501.14
2019-04-07T22:22:20.319Z,98496.75
2019-04-07T22:24:48.736Z,98494.94
2019-04-07T22:27:21.202Z,98498.59
2019-04-07T22:29:47.312Z,98494.08
2019-04-07T22:32:19.276Z,98496.91
2019-04-07T22:34:46.182Z,98502.25
2019-04-07T22:37:17.212Z,98495.19
2019-04-07T22:39:45.642Z,98499.70
2019-04-07T22:42:15.882Z,98496.30
2019-04-07T22:44:45.249Z,98494.48
2019-04-07T22:47:15.449Z,98496.41
2019-04-07T22:49:44.002Z,98495.46
2019-04-07T22:52:16.006Z,98488.40
2019-04-07T22:54:42.575Z,98489.38
2019-04-07T22:57:13.859Z,98486.70
2019-04-07T22:59:41.826Z,98489.38
2019-04-07T23:02:10.401Z,98495.59
2019-04-07T23:04:38.894Z,98497.39
2019-04-07T23:07:08.209Z,98494.73
2019-04-07T23:09:37.029Z,98501.05
2019-04-07T23:12:05.617Z,98502.74
2019-04-07T23:14:34.030Z,98495.71
2019-04-07T23:17:02.504Z,98494.84
2019-04-07T23:19:31.011Z,98499.36
2019-04-07T23:21:59.601Z,98499.36
2019-04-07T23:24:28.850Z,98499.36
2019-04-07T23:26:57.464Z,98499.36
2019-04-07T23:29:26.209Z,98497.64
2019-04-07T23:31:55.576Z,98495.95
2019-04-07T23:34:24.136Z,98487.94
2019-04-07T23:36:52.596Z,98493.28
2019-04-07T23:39:21.522Z,98484.41
2019-04-07T23:41:50.044Z,98495.09
2019-04-07T23:44:18.456Z,98488.92
2019-04-07T23:46:47.705Z,98499.61
2019-04-07T23:49:16.229Z,98490.86
2019-04-07T23:51:45.524Z,98485.52
2019-04-07T23:54:14.384Z,98490.03
2019-04-07T23:56:43.649Z,98493.66
2019-04-07T23:59:12.140Z,98477.63
